Gotse Delchev, Bulgaria
Current Conditions -  °F | °C
As of 11:20 AM on Sunday 21 Dec 2014 (Local Time) from LGKV Reporting Station
Broken Clouds Broken Clouds  
Wind Chill: 43°   Ceiling: 8000
Heat Index: 43°   Visibility: 6mi
Dew Point: 39°   Wind: 0mph
Humidity: 87%   Direction: NA
Pressure: 30.03"   Gusts: NA
Location:  41.57°N, 23.74°E
Report Text: LGKV 210820Z 00000KT 9999 FEW025 BKN080 06/04 Q1017
Loading
Personal Weather Stations






























Interactive Weather Map New forecast layout! Learn more

10-Day Weather Forecast

Advertisements
Track Severe Weather on mobile